Time;durP1;ratioP1;P1;durP2;ratioP2;P2;SDS_P1;SDS_P2;PMS_P1;PMS_P2;Temp;Humidity;BMP_temperature;BMP_pressure;BME280_temperature;BME280_humidity;BME280_pressure;Samples;Min_cycle;Max_cycle;Signal;HPM_P1;HPM_P2
2024/04/18 00:02:18;;;;;;;4.97;1.43;;;18.40;51.80;;;;;;5345122;26;20578;-76
2024/04/18 00:04:48;;;;;;;3.40;2.00;;;18.40;51.80;;;;;;5345426;26;20518;-76
2024/04/18 00:07:16;;;;;;;2.67;1.60;;;18.40;51.90;;;;;;5330967;26;20467;-76
2024/04/18 00:09:45;;;;;;;2.10;1.70;;;18.40;51.80;;;;;;5344775;26;20524;-76
2024/04/18 00:12:16;;;;;;;1.70;1.47;;;18.30;51.70;;;;;;5343365;26;20518;-77
2024/04/18 00:14:46;;;;;;;1.97;1.60;;;18.30;51.70;;;;;;5344318;26;20524;-76
2024/04/18 00:17:13;;;;;;;2.50;1.60;;;18.30;51.70;;;;;;5336272;26;20472;-76
2024/04/18 00:20:00;;;;;;;3.10;1.40;;;18.30;51.70;;;;;;5486134;25;20584;-76
2024/04/18 00:22:27;;;;;;;1.97;1.60;;;18.30;51.70;;;;;;5445671;26;20514;-79
2024/04/18 00:24:57;;;;;;;4.13;2.10;;;18.20;51.80;;;;;;5449224;26;20469;-77
2024/04/18 00:27:26;;;;;;;1.93;1.77;;;18.20;51.80;;;;;;5452792;26;20605;-76
2024/04/18 00:29:57;;;;;;;3.53;1.43;;;18.20;51.80;;;;;;5450847;26;20472;-76
2024/04/18 00:32:24;;;;;;;3.87;1.43;;;18.20;51.80;;;;;;5441204;26;20554;-77
2024/04/18 00:34:54;;;;;;;3.33;2.23;;;18.20;51.70;;;;;;5453029;26;20526;-76
2024/04/18 00:37:24;;;;;;;1.67;1.57;;;18.10;51.60;;;;;;5441209;26;20577;-77
2024/04/18 00:39:55;;;;;;;2.43;1.53;;;18.10;51.80;;;;;;5451541;26;20480;-77
2024/04/18 00:42:22;;;;;;;3.00;1.67;;;18.10;51.60;;;;;;5449816;26;20516;-77
2024/04/18 00:44:52;;;;;;;4.30;1.83;;;18.10;51.80;;;;;;5439851;26;20468;-77
2024/04/18 00:47:20;;;;;;;1.77;1.67;;;18.00;51.60;;;;;;5440787;26;20466;-76
2024/04/18 00:49:50;;;;;;;3.07;1.60;;;18.00;51.70;;;;;;5435993;26;20508;-77
2024/04/18 00:52:20;;;;;;;3.53;1.50;;;18.00;51.70;;;;;;5445191;26;20467;-77
2024/04/18 00:54:53;;;;;;;2.50;1.17;;;18.00;52.00;;;;;;5459012;26;20467;-80
2024/04/18 00:57:21;;;;;;;3.77;1.80;;;17.90;51.60;;;;;;5442098;26;20460;-76
2024/04/18 00:59:51;;;;;;;3.73;1.57;;;17.90;51.80;;;;;;5442505;26;20547;-77
2024/04/18 01:02:19;;;;;;;1.83;1.70;;;17.90;51.80;;;;;;5445163;26;20466;-75
2024/04/18 01:04:49;;;;;;;1.73;1.60;;;17.90;51.80;;;;;;5454370;26;20566;-77
2024/04/18 01:07:16;;;;;;;1.80;1.60;;;17.80;51.80;;;;;;5449451;26;20479;-77
2024/04/18 01:09:46;;;;;;;2.70;1.53;;;17.80;51.70;;;;;;5468564;26;20466;-77
2024/04/18 01:12:16;;;;;;;5.13;1.30;;;17.80;51.80;;;;;;5441924;26;20478;-76
2024/04/18 01:14:46;;;;;;;2.63;1.43;;;17.80;51.80;;;;;;5434795;26;20522;-76
2024/04/18 01:17:13;;;;;;;3.10;1.40;;;17.80;51.60;;;;;;5456190;26;20524;-76
2024/04/18 01:19:44;;;;;;;2.00;1.80;;;17.80;51.80;;;;;;5469744;26;20528;-76
2024/04/18 01:22:12;;;;;;;1.97;1.60;;;17.80;51.70;;;;;;5484232;26;20468;-77
2024/04/18 01:24:42;;;;;;;1.90;1.80;;;17.70;51.60;;;;;;5474695;26;20470;-76
2024/04/18 01:27:12;;;;;;;2.67;1.70;;;17.70;51.80;;;;;;5495093;26;20534;-75
2024/04/18 01:29:43;;;;;;;2.43;2.03;;;17.70;51.60;;;;;;5473992;26;20468;-76
2024/04/18 01:32:10;;;;;;;3.93;1.80;;;17.70;51.50;;;;;;5454029;26;20459;-76
2024/04/18 01:34:40;;;;;;;1.90;1.70;;;17.70;51.80;;;;;;5464794;26;20566;-77
2024/04/18 01:37:08;;;;;;;2.13;1.97;;;17.70;51.70;;;;;;5449295;26;20474;-76
2024/04/18 01:39:38;;;;;;;2.33;1.73;;;17.60;51.60;;;;;;5455677;26;20471;-76
2024/04/18 01:42:05;;;;;;;1.53;1.43;;;17.60;51.60;;;;;;5462150;26;20561;-76
2024/04/18 01:44:38;;;;;;;3.93;2.20;;;17.60;51.60;;;;;;5472980;26;20453;-78
2024/04/18 01:47:06;;;;;;;3.23;1.87;;;17.60;51.60;;;;;;5489363;26;20465;-76
2024/04/18 01:49:36;;;;;;;2.27;2.07;;;17.50;51.50;;;;;;5465118;26;20526;-76
2024/04/18 01:52:03;;;;;;;4.20;2.33;;;17.50;51.50;;;;;;5465464;26;20466;-76
2024/04/18 01:54:34;;;;;;;3.80;2.50;;;17.50;51.60;;;;;;5488449;26;20462;-77
2024/04/18 01:57:01;;;;;;;7.27;3.30;;;17.50;51.60;;;;;;5463927;26;20462;-76
2024/04/18 01:59:31;;;;;;;5.33;2.80;;;17.50;51.50;;;;;;5452469;26;20471;-78
2024/04/18 02:02:02;;;;;;;6.73;3.13;;;17.40;51.40;;;;;;5467809;26;20579;-79
2024/04/18 02:04:32;;;;;;;6.33;3.03;;;17.40;51.50;;;;;;5466703;26;20523;-75
2024/04/18 02:07:00;;;;;;;5.30;3.40;;;17.30;51.50;;;;;;5488379;26;20463;-76
2024/04/18 02:09:30;;;;;;;4.73;3.03;;;17.30;51.50;;;;;;5453417;26;20835;-75
2024/04/18 02:11:57;;;;;;;8.27;3.80;;;17.30;51.50;;;;;;5467410;26;20470;-77
2024/04/18 02:14:27;;;;;;;3.73;3.27;;;17.30;51.50;;;;;;5468619;26;20462;-76
2024/04/18 02:16:54;;;;;;;5.40;3.70;;;17.30;51.40;;;;;;5473304;26;20461;-75
2024/04/18 02:19:27;;;;;;;5.40;3.20;;;17.30;51.50;;;;;;5457770;26;20471;-78
2024/04/18 02:21:54;;;;;;;12.07;5.00;;;17.30;51.60;;;;;;5454198;26;20514;-76
2024/04/18 02:24:25;;;;;;;9.60;4.93;;;17.30;51.60;;;;;;5452649;26;20589;-78
2024/04/18 02:26:52;;;;;;;13.33;4.00;;;17.30;51.40;;;;;;5462146;26;20461;-76
2024/04/18 02:29:22;;;;;;;9.90;5.17;;;17.30;51.50;;;;;;5463739;26;20562;-76
2024/04/18 02:31:49;;;;;;;8.30;4.77;;;17.30;51.20;;;;;;5488798;26;20507;-76
2024/04/18 02:34:19;;;;;;;5.93;3.77;;;17.20;51.40;;;;;;5471485;26;20522;-76
2024/04/18 02:36:49;;;;;;;6.87;4.50;;;17.20;51.40;;;;;;5487909;26;20519;-78
2024/04/18 02:39:19;;;;;;;9.70;5.10;;;17.20;51.30;;;;;;5475776;26;20513;-76
2024/04/18 02:41:46;;;;;;;15.83;5.10;;;17.10;51.30;;;;;;5458265;26;20467;-74
2024/04/18 02:44:17;;;;;;;8.23;5.00;;;17.10;51.30;;;;;;5466502;26;20462;-77
2024/04/18 02:46:44;;;;;;;9.33;5.17;;;17.10;51.60;;;;;;5451992;26;20872;-76
2024/04/18 02:49:14;;;;;;;8.70;4.50;;;17.10;51.50;;;;;;5481190;26;20516;-76
2024/04/18 02:51:41;;;;;;;10.60;5.00;;;17.10;51.30;;;;;;5478667;26;20508;-76
2024/04/18 02:54:14;;;;;;;13.13;4.77;;;17.10;51.50;;;;;;5468349;26;20970;-76
2024/04/18 02:56:42;;;;;;;9.87;5.00;;;17.10;51.40;;;;;;5451848;26;20531;-78
2024/04/18 02:59:12;;;;;;;12.00;6.20;;;17.00;51.00;;;;;;5482571;26;20466;-75
2024/04/18 03:01:40;;;;;;;10.30;5.40;;;17.00;51.40;;;;;;5483869;26;20507;-76
2024/04/18 03:04:10;;;;;;;12.13;5.70;;;17.10;51.40;;;;;;5487531;26;20993;-76
2024/04/18 03:06:37;;;;;;;10.87;5.37;;;17.00;51.20;;;;;;5480352;26;20476;-76
2024/04/18 03:09:07;;;;;;;10.43;5.33;;;17.00;51.20;;;;;;5457380;26;20513;-76
2024/04/18 03:11:38;;;;;;;11.10;6.07;;;17.00;51.40;;;;;;5476816;26;20575;-76
2024/04/18 03:14:07;;;;;;;11.80;6.23;;;17.00;51.40;;;;;;5486470;26;20470;-75
2024/04/18 03:16:35;;;;;;;12.90;6.27;;;17.00;52.00;;;;;;5456900;26;20503;-75
2024/04/18 03:19:04;;;;;;;14.10;6.50;;;16.90;51.00;;;;;;5457698;26;20472;-75
2024/04/18 03:21:32;;;;;;;12.53;7.07;;;16.90;51.30;;;;;;5450101;26;20540;-76
2024/04/18 03:24:02;;;;;;;10.20;5.97;;;16.90;51.10;;;;;;5451477;26;20476;-79
2024/04/18 03:26:29;;;;;;;9.87;5.97;;;16.80;51.20;;;;;;5472706;26;20470;-75
2024/04/18 03:29:02;;;;;;;13.53;6.40;;;16.90;51.20;;;;;;5473570;26;20485;-75
2024/04/18 03:31:29;;;;;;;11.17;6.40;;;16.80;51.20;;;;;;5487673;26;20470;-77
2024/04/18 03:34:00;;;;;;;12.67;6.13;;;16.80;51.20;;;;;;5477802;26;20451;-76
2024/04/18 03:36:27;;;;;;;13.57;6.40;;;16.80;51.10;;;;;;5487249;26;20474;-76
2024/04/18 03:39:00;;;;;;;13.03;6.20;;;16.80;51.30;;;;;;5461809;26;21067;-75
2024/04/18 03:41:31;;;;;;;13.57;7.10;;;16.80;51.40;;;;;;5452374;26;20462;-80
2024/04/18 03:44:03;;;;;;;11.53;6.30;;;16.80;51.00;;;;;;5463968;26;20470;-76
2024/04/18 03:46:31;;;;;;;12.40;6.63;;;16.80;51.20;;;;;;5472156;26;20512;-78
2024/04/18 03:49:01;;;;;;;13.60;7.03;;;16.70;51.20;;;;;;5468202;26;20480;-76
2024/04/18 03:51:31;;;;;;;9.47;5.70;;;16.70;52.00;;;;;;5461402;26;20518;-76
2024/04/18 03:53:59;;;;;;;15.67;7.23;;;16.80;51.50;;;;;;5480464;26;20986;-76
2024/04/18 03:56:28;;;;;;;11.47;6.67;;;16.80;51.40;;;;;;5454174;26;20471;-76
2024/04/18 03:58:56;;;;;;;11.57;6.80;;;16.80;51.20;;;;;;5451267;26;20468;-76
2024/04/18 04:01:29;;;;;;;16.77;6.70;;;16.80;51.30;;;;;;5451957;26;20520;-74
2024/04/18 04:03:57;;;;;;;13.00;6.90;;;16.80;51.30;;;;;;5458841;26;20519;-75
2024/04/18 04:06:27;;;;;;;14.17;7.77;;;16.80;51.10;;;;;;5472458;26;21089;-76
2024/04/18 04:08:54;;;;;;;12.33;6.90;;;16.80;51.20;;;;;;5470840;26;20575;-76
2024/04/18 04:11:24;;;;;;;11.97;6.83;;;16.80;51.30;;;;;;5481179;26;20471;-75
2024/04/18 04:13:51;;;;;;;13.07;6.50;;;16.80;51.30;;;;;;5461951;26;20517;-76
2024/04/18 04:16:22;;;;;;;12.80;7.33;;;16.80;51.30;;;;;;5469614;26;20520;-76
2024/04/18 04:18:54;;;;;;;14.30;7.30;;;16.70;51.30;;;;;;5486855;26;20518;-76
2024/04/18 04:21:25;;;;;;;11.67;6.90;;;16.80;51.20;;;;;;5480640;26;20553;-76
2024/04/18 04:23:53;;;;;;;15.40;7.40;;;16.80;51.40;;;;;;5451285;26;20463;-77
2024/04/18 04:26:23;;;;;;;12.97;7.30;;;16.80;51.30;;;;;;5465694;26;20474;-75
2024/04/18 04:28:50;;;;;;;16.50;8.00;;;16.80;51.10;;;;;;5452361;26;20468;-76
2024/04/18 04:31:20;;;;;;;15.30;8.47;;;16.80;51.30;;;;;;5450917;26;20479;-78
2024/04/18 04:33:47;;;;;;;13.30;7.37;;;16.80;51.30;;;;;;5454996;26;20463;-79
2024/04/18 04:36:20;;;;;;;15.43;8.03;;;16.80;51.30;;;;;;5461874;26;20471;-76
2024/04/18 04:38:50;;;;;;;16.13;8.40;;;16.80;51.10;;;;;;5460742;26;20509;-75
2024/04/18 04:41:22;;;;;;;15.47;7.83;;;16.70;51.40;;;;;;5455121;26;21480;-76
2024/04/18 04:43:50;;;;;;;15.00;7.77;;;16.80;51.40;;;;;;5450309;26;20479;-76
2024/04/18 04:46:20;;;;;;;19.00;7.87;;;16.80;51.40;;;;;;5450114;26;20517;-76
2024/04/18 04:48:47;;;;;;;16.40;7.80;;;16.80;51.30;;;;;;5450087;26;20555;-75
2024/04/18 04:51:20;;;;;;;18.80;8.87;;;16.90;51.30;;;;;;5459756;26;20552;-76
2024/04/18 04:53:47;;;;;;;14.00;7.63;;;16.90;51.20;;;;;;5450546;26;20510;-76
2024/04/18 04:56:22;;;;;;;17.00;8.30;;;16.80;51.40;;;;;;5464036;26;20513;-76
2024/04/18 04:58:50;;;;;;;15.23;7.37;;;16.90;51.40;;;;;;5464730;26;20582;-75
2024/04/18 05:01:19;;;;;;;16.37;7.83;;;16.90;51.30;;;;;;5471133;26;20465;-77
2024/04/18 05:03:48;;;;;;;19.80;8.40;;;16.90;51.30;;;;;;5477420;26;20564;-76
2024/04/18 05:06:21;;;;;;;16.33;8.00;;;17.00;51.40;;;;;;5457501;26;20573;-77
2024/04/18 05:08:48;;;;;;;20.20;8.13;;;17.00;51.30;;;;;;5468537;26;20519;-76
2024/04/18 05:11:18;;;;;;;16.10;7.30;;;17.00;52.00;;;;;;5462167;26;20467;-78
2024/04/18 05:13:45;;;;;;;15.00;8.10;;;17.10;51.50;;;;;;5453913;26;20526;-80
2024/04/18 05:16:15;;;;;;;13.63;7.93;;;17.00;51.30;;;;;;5467534;26;20466;-77
2024/04/18 05:18:42;;;;;;;15.00;8.30;;;17.00;51.20;;;;;;5458542;26;20476;-76
2024/04/18 05:21:12;;;;;;;14.37;7.43;;;17.10;51.20;;;;;;5456532;26;20545;-77
2024/04/18 05:23:42;;;;;;;15.53;7.57;;;17.10;51.30;;;;;;5481297;26;20466;-77
2024/04/18 05:26:14;;;;;;;15.60;7.90;;;17.10;51.50;;;;;;5463330;26;20475;-76
2024/04/18 05:31:29;;;;;;;18.60;7.90;;;17.10;51.20;;;;;;5456064;26;20468;-77
2024/04/18 05:33:59;;;;;;;15.67;7.70;;;17.10;51.50;;;;;;5465074;26;20473;-77
2024/04/18 05:36:29;;;;;;;14.20;7.30;;;17.10;51.60;;;;;;5490726;26;20477;-76
2024/04/18 05:39:27;;;;;;;13.67;7.30;;;17.20;51.30;;;;;;5459710;26;20553;-77
2024/04/18 05:42:04;;;;;;;14.97;7.00;;;17.20;51.60;;;;;;5480732;26;20509;-78
2024/04/18 05:44:39;;;;;;;17.20;8.57;;;17.20;51.50;;;;;;5455743;26;20583;-77
2024/04/18 05:47:09;;;;;;;15.47;7.80;;;17.20;51.60;;;;;;5490251;26;20561;-77
2024/04/18 05:49:39;;;;;;;15.70;7.63;;;17.20;51.40;;;;;;5456780;26;20477;-78
2024/04/18 05:52:10;;;;;;;11.80;6.60;;;17.20;51.60;;;;;;5470733;26;20554;-78
2024/04/18 05:54:40;;;;;;;11.77;7.20;;;17.30;51.70;;;;;;5474239;26;20517;-78
2024/04/18 05:57:10;;;;;;;15.77;7.63;;;17.30;51.50;;;;;;5464709;26;20487;-77
2024/04/18 05:59:40;;;;;;;13.50;7.23;;;17.30;51.60;;;;;;5485503;26;20516;-79
2024/04/18 06:02:10;;;;;;;14.50;7.97;;;17.30;51.60;;;;;;5477101;26;20475;-78
2024/04/18 06:04:42;;;;;;;13.50;7.50;;;17.30;51.80;;;;;;5453782;26;20467;-76
2024/04/18 06:07:12;;;;;;;13.53;7.80;;;17.30;51.50;;;;;;5459644;26;20465;-77
2024/04/18 06:09:45;;;;;;;14.50;7.33;;;17.30;51.70;;;;;;5457806;26;20475;-77
2024/04/18 06:12:17;;;;;;;15.73;7.50;;;17.30;51.70;;;;;;5460914;26;20519;-77
2024/04/18 06:14:47;;;;;;;17.53;7.70;;;17.40;51.80;;;;;;5465312;26;20458;-77
2024/04/18 06:17:17;;;;;;;14.00;7.63;;;17.40;52.40;;;;;;5488296;26;20470;-77
2024/04/18 06:19:50;;;;;;;13.67;7.00;;;17.40;51.90;;;;;;5446873;26;20467;-77
2024/04/18 06:22:20;;;;;;;16.80;7.20;;;17.40;51.70;;;;;;5452880;26;20509;-77
2024/04/18 06:24:53;;;;;;;12.80;6.63;;;17.50;51.80;;;;;;5453026;26;20572;-77
2024/04/18 06:27:24;;;;;;;13.67;7.43;;;17.60;51.70;;;;;;5469113;26;20467;-78
2024/04/18 06:29:54;;;;;;;12.70;7.53;;;17.60;51.90;;;;;;5483866;26;20471;-76
2024/04/18 06:32:24;;;;;;;15.30;6.70;;;17.60;51.80;;;;;;5452968;26;20484;-76
2024/04/18 06:34:57;;;;;;;13.60;7.23;;;17.70;51.80;;;;;;5474467;26;20556;-77
2024/04/18 06:37:28;;;;;;;13.93;7.20;;;17.80;51.80;;;;;;5472636;26;20516;-77
2024/04/18 06:40:01;;;;;;;13.97;7.27;;;17.80;51.60;;;;;;5466036;26;20480;-77
2024/04/18 06:42:32;;;;;;;12.07;6.90;;;17.90;51.80;;;;;;5462513;26;20569;-76
2024/04/18 06:45:02;;;;;;;11.87;6.50;;;17.90;51.70;;;;;;5476821;26;20531;-78
2024/04/18 06:47:32;;;;;;;9.90;6.00;;;18.00;51.70;;;;;;5453585;26;20468;-77
2024/04/18 06:50:02;;;;;;;12.23;6.30;;;18.10;51.70;;;;;;5465085;26;20549;-77
2024/04/18 06:52:33;;;;;;;11.87;6.90;;;18.10;51.70;;;;;;5473428;26;20580;-78
2024/04/18 06:55:06;;;;;;;10.50;6.03;;;18.20;51.70;;;;;;5478819;26;20878;-77
2024/04/18 06:57:36;;;;;;;10.50;6.17;;;18.20;51.70;;;;;;5470503;26;20471;-78
2024/04/18 07:00:08;;;;;;;11.73;7.33;;;18.30;51.70;;;;;;5458544;26;20510;-77
2024/04/18 07:02:39;;;;;;;10.93;5.97;;;18.30;51.60;;;;;;5467269;26;20529;-79
2024/04/18 07:05:09;;;;;;;9.60;5.63;;;18.30;51.70;;;;;;5458747;26;20514;-77
2024/04/18 07:07:39;;;;;;;10.40;6.10;;;18.30;51.70;;;;;;5457797;26;20534;-79
2024/04/18 07:10:14;;;;;;;12.37;6.83;;;18.30;51.80;;;;;;5469983;26;20512;-78
2024/04/18 07:12:44;;;;;;;11.27;6.13;;;18.40;51.90;;;;;;5457376;26;20505;-77
2024/04/18 07:15:15;;;;;;;8.40;5.30;;;18.50;51.80;;;;;;5464327;26;20625;-77
2024/04/18 07:17:45;;;;;;;10.10;5.83;;;18.50;51.80;;;;;;5478298;26;20501;-78
2024/04/18 07:20:15;;;;;;;12.90;6.00;;;18.60;51.90;;;;;;5469288;26;20470;-80
2024/04/18 07:22:46;;;;;;;9.27;5.80;;;18.70;51.80;;;;;;5467205;26;20983;-79
2024/04/18 07:25:21;;;;;;;9.00;5.40;;;18.70;51.70;;;;;;5473380;26;20473;-81
2024/04/18 07:27:51;;;;;;;10.67;5.73;;;18.80;51.70;;;;;;5452315;26;20587;-77
2024/04/18 07:30:22;;;;;;;10.10;5.80;;;18.80;51.70;;;;;;5459583;26;20531;-75
2024/04/18 07:32:52;;;;;;;10.43;5.07;;;18.90;51.70;;;;;;5458135;26;20517;-78
2024/04/18 07:35:24;;;;;;;8.63;5.87;;;19.00;51.70;;;;;;5452511;26;20471;-76
2024/04/18 07:37:55;;;;;;;8.83;5.33;;;19.00;51.60;;;;;;5461069;26;21078;-77
2024/04/18 07:40:28;;;;;;;9.63;5.27;;;19.10;51.60;;;;;;5466606;26;20475;-79
2024/04/18 07:42:58;;;;;;;10.30;6.33;;;19.20;51.70;;;;;;5461217;26;20461;-76
2024/04/18 07:45:30;;;;;;;11.93;4.90;;;19.20;51.60;;;;;;5458927;26;20485;-78
2024/04/18 07:48:00;;;;;;;8.57;5.07;;;19.30;51.70;;;;;;5468386;26;20532;-76
2024/04/18 07:50:30;;;;;;;9.90;6.00;;;19.40;51.70;;;;;;5452103;26;20518;-77
2024/04/18 07:53:01;;;;;;;5.93;4.40;;;19.40;51.60;;;;;;5451974;26;20510;-75
2024/04/18 07:55:41;;;;;;;6.03;4.20;;;19.50;51.60;;;;;;5457275;26;20579;-77
2024/04/18 07:58:12;;;;;;;8.63;5.33;;;19.60;51.60;;;;;;5456992;26;20464;-77
2024/04/18 08:00:43;;;;;;;6.13;4.20;;;19.60;51.60;;;;;;5477300;26;20513;-76
2024/04/18 08:03:17;;;;;;;5.80;3.90;;;19.70;51.70;;;;;;5465978;26;20526;-76
2024/04/18 08:05:54;;;;;;;7.13;4.13;;;19.80;51.70;;;;;;5481368;26;20515;-78
2024/04/18 08:08:31;;;;;;;6.57;3.93;;;19.80;51.70;;;;;;5479743;26;20481;-78
2024/04/18 08:11:12;;;;;;;5.20;3.97;;;19.80;51.60;;;;;;5463630;26;20514;-77
2024/04/18 08:14:07;;;;;;;7.27;5.00;;;19.90;51.60;;;;;;5476578;26;20888;-79
2024/04/18 08:16:49;;;;;;;6.13;4.10;;;19.90;51.50;;;;;;5474516;26;20478;-78
2024/04/18 08:19:24;;;;;;;7.33;4.17;;;20.00;51.70;;;;;;5481374;26;20477;-78
2024/04/18 08:21:59;;;;;;;6.90;4.97;;;20.20;52.10;;;;;;5461826;26;20473;-80
2024/04/18 08:24:38;;;;;;;6.43;3.93;;;20.50;52.10;;;;;;5477197;26;20471;-79
2024/04/18 08:27:22;;;;;;;4.10;3.50;;;20.70;52.00;;;;;;5461671;26;20458;-79
2024/04/18 08:32:36;;;;;;;6.20;3.90;;;21.00;51.70;;;;;;5482681;26;20504;-79
2024/04/18 08:35:07;;;;;;;4.70;3.60;;;21.20;51.50;;;;;;5478147;26;20481;-76
2024/04/18 08:37:39;;;;;;;4.60;3.90;;;21.20;51.40;;;;;;5480183;26;20512;-78
2024/04/18 08:40:13;;;;;;;5.60;3.77;;;21.20;51.40;;;;;;5483187;26;20474;-79
2024/04/18 08:42:47;;;;;;;5.80;3.93;;;21.30;51.70;;;;;;5487691;26;20454;-81
2024/04/18 08:45:20;;;;;;;6.80;4.13;;;21.40;52.00;;;;;;5482099;26;20504;-80
2024/04/18 08:47:59;;;;;;;5.03;3.80;;;21.60;52.20;;;;;;5469070;26;20467;-79
2024/04/18 08:50:31;;;;;;;5.87;4.03;;;21.90;52.20;;;;;;5474708;26;20589;-79
2024/04/18 08:53:02;;;;;;;5.00;3.80;;;22.20;52.40;;;;;;5491293;26;20465;-81
2024/04/18 08:55:40;;;;;;;4.70;3.53;;;22.40;52.40;;;;;;5461700;26;20929;-81
2024/04/18 09:03:24;;;;;;;5.27;3.60;;;23.30;52.30;;;;;;5363522;26;20464;-81
2024/04/18 09:05:54;;;;;;;4.93;3.40;;;23.60;52.00;;;;;;5351462;26;20463;-81
2024/04/18 09:08:24;;;;;;;4.07;3.40;;;23.80;51.60;;;;;;5348553;26;20479;-80
2024/04/18 09:10:54;;;;;;;4.13;3.30;;;23.90;51.40;;;;;;5318569;26;20472;-82
2024/04/18 09:13:25;;;;;;;4.83;3.30;;;24.00;51.20;;;;;;5320543;27;20473;-83
2024/04/18 09:15:57;;;;;;;4.27;3.67;;;24.10;51.20;;;;;;5321775;27;20551;-80
2024/04/18 09:18:34;;;;;;;3.70;2.97;;;24.10;51.20;;;;;;5319808;27;20488;-81
2024/04/18 09:21:05;;;;;;;2.93;2.73;;;24.20;51.50;;;;;;5319814;27;20518;-81
2024/04/18 09:23:35;;;;;;;3.97;3.50;;;24.40;51.60;;;;;;5310231;27;20568;-80
2024/04/18 09:26:06;;;;;;;3.57;3.10;;;24.70;51.60;;;;;;5319049;27;20509;-80
2024/04/18 09:28:38;;;;;;;3.83;3.37;;;25.00;51.60;;;;;;5318849;26;20461;-81
2024/04/18 09:31:08;;;;;;;2.97;2.77;;;25.20;51.30;;;;;;5318880;27;20465;-80
2024/04/18 09:33:41;;;;;;;9.47;3.67;;;25.50;51.20;;;;;;5313151;27;20477;-80
2024/04/18 09:36:11;;;;;;;6.20;2.63;;;25.70;51.10;;;;;;5311940;26;20581;-81
2024/04/18 09:38:39;;;;;;;3.37;2.80;;;25.90;50.90;;;;;;5297567;26;20460;-80
2024/04/18 09:41:13;;;;;;;4.20;2.90;;;26.10;50.90;;;;;;5324331;26;20507;-80
2024/04/18 09:43:46;;;;;;;3.13;2.40;;;26.40;50.80;;;;;;5324186;26;20905;-81
2024/04/18 09:46:17;;;;;;;2.43;2.23;;;26.70;50.60;;;;;;5320367;26;20546;-81
2024/04/18 09:48:50;;;;;;;2.03;1.47;;;27.00;50.40;;;;;;5349514;26;20551;-82
2024/04/18 09:51:20;;;;;;;1.00;0.90;;;25.90;40.10;;;;;;5316694;27;20453;-82
2024/04/18 09:53:50;;;;;;;0.77;0.77;;;23.60;33.40;;;;;;5316301;26;20457;-82
2024/04/18 09:56:23;;;;;;;1.67;1.00;;;22.30;35.40;;;;;;5319151;27;20994;-81
2024/04/18 09:58:53;;;;;;;0.70;0.70;;;21.50;33.80;;;;;;5310049;26;20481;-80
2024/04/18 10:01:24;;;;;;;1.43;1.10;;;21.70;35.90;;;;;;5312061;26;20561;-81
2024/04/18 10:03:56;;;;;;;2.27;1.20;;;21.80;34.50;;;;;;5317458;26;20483;-76
2024/04/18 10:06:29;;;;;;;3.30;1.10;;;21.40;36.40;;;;;;5320334;26;20465;-82
2024/04/18 10:09:00;;;;;;;7.90;1.03;;;21.10;34.00;;;;;;5311354;26;20564;-78
2024/04/18 10:11:30;;;;;;;9.63;1.20;;;21.10;35.90;;;;;;5303194;26;20512;-79
2024/04/18 10:14:02;;;;;;;3.13;1.20;;;21.00;36.70;;;;;;5300045;27;20513;-77
2024/04/18 10:16:33;;;;;;;2.47;1.37;;;21.50;35.20;;;;;;5313298;26;20580;-76
2024/04/18 10:19:14;;;;;;;2.60;1.13;;;21.60;34.60;;;;;;5311609;26;20590;-78
2024/04/18 10:21:44;;;;;;;1.40;1.30;;;21.40;35.20;;;;;;5309417;26;20586;-78
2024/04/18 10:24:37;;;;;;;3.20;1.40;;;21.40;36.40;;;;;;5310789;26;20529;-77
2024/04/18 10:27:10;;;;;;;3.43;1.40;;;21.20;38.60;;;;;;5313120;27;20521;-75
2024/04/18 10:29:41;;;;;;;2.10;1.73;;;21.20;38.90;;;;;;5298794;27;20527;-76
2024/04/18 10:32:14;;;;;;;3.80;1.57;;;20.90;38.60;;;;;;5309241;27;20527;-76
2024/04/18 10:35:18;;;;;;;3.40;1.27;;;20.60;40.40;;;;;;5306018;26;20528;-74
2024/04/18 10:37:57;;;;;;;1.93;1.20;;;20.70;39.30;;;;;;5288315;27;20497;-76
2024/04/18 10:40:29;;;;;;;1.40;1.30;;;20.70;39.80;;;;;;5303245;27;20525;-77
2024/04/18 10:43:15;;;;;;;6.10;1.50;;;20.40;39.90;;;;;;5312091;27;20461;-77
2024/04/18 10:45:49;;;;;;;6.50;1.60;;;20.30;41.00;;;;;;5301402;26;20482;-77
2024/04/18 10:48:22;;;;;;;3.23;1.30;;;20.40;40.90;;;;;;5313469;26;20529;-76
2024/04/18 10:50:53;;;;;;;4.70;1.13;;;20.50;41.30;;;;;;5313481;27;20528;-77
2024/04/18 10:53:26;;;;;;;1.40;1.30;;;20.70;41.20;;;;;;5312990;26;20477;-76
2024/04/18 10:55:57;;;;;;;3.23;1.50;;;20.90;40.20;;;;;;5312866;27;20579;-76
2024/04/18 10:58:28;;;;;;;2.63;1.17;;;20.90;39.10;;;;;;5308870;26;20537;-76
2024/04/18 11:00:59;;;;;;;3.63;1.73;;;21.10;39.80;;;;;;5303416;26;20509;-76
2024/04/18 11:03:30;;;;;;;2.47;1.40;;;21.30;39.00;;;;;;5310759;26;21013;-77
2024/04/18 11:06:02;;;;;;;1.87;1.50;;;21.30;37.70;;;;;;5305095;27;20524;-78
2024/04/18 11:08:36;;;;;;;3.47;1.20;;;21.50;38.30;;;;;;5301601;26;20485;-78
2024/04/18 11:11:07;;;;;;;3.53;1.20;;;21.70;38.30;;;;;;5297284;26;20479;-79
2024/04/18 11:13:40;;;;;;;3.37;1.53;;;22.10;38.80;;;;;;5277875;27;20488;-78
2024/04/18 11:16:11;;;;;;;7.20;1.43;;;22.30;38.00;;;;;;5312043;27;20590;-78
2024/04/18 11:18:41;;;;;;;2.63;1.47;;;22.20;37.70;;;;;;5312146;26;20489;-78
2024/04/18 11:21:12;;;;;;;4.00;1.00;;;22.10;38.30;;;;;;5311709;27;20445;-77
2024/04/18 11:23:46;;;;;;;3.47;1.40;;;21.90;37.30;;;;;;5311971;27;20473;-77
2024/04/18 11:26:21;;;;;;;2.83;1.37;;;21.60;36.30;;;;;;5297218;27;20493;-76
2024/04/18 11:28:53;;;;;;;2.13;1.20;;;21.40;36.90;;;;;;5305979;26;20477;-78
2024/04/18 11:31:23;;;;;;;2.50;1.30;;;22.10;36.90;;;;;;5310075;26;20529;-77
2024/04/18 11:33:55;;;;;;;2.23;1.10;;;23.40;37.90;;;;;;5313266;27;20465;-80
2024/04/18 11:36:28;;;;;;;5.40;1.40;;;24.40;34.20;;;;;;5323861;26;20470;-77
2024/04/18 11:39:07;;;;;;;5.03;1.10;;;26.20;36.00;;;;;;5288495;27;21035;-78
2024/04/18 11:41:38;;;;;;;1.60;1.10;;;26.30;32.40;;;;;;5312215;27;20469;-77
2024/04/18 11:44:12;;;;;;;1.83;1.30;;;25.30;31.80;;;;;;5300179;27;20488;-78
2024/04/18 11:46:48;;;;;;;2.00;1.27;;;24.10;33.10;;;;;;5312918;27;20525;-77
2024/04/18 11:49:18;;;;;;;1.53;0.93;;;23.10;33.40;;;;;;5311914;26;20525;-76
2024/04/18 11:51:52;;;;;;;5.33;1.40;;;23.50;34.30;;;;;;5312835;27;20473;-77
2024/04/18 11:54:26;;;;;;;3.80;1.20;;;24.40;36.40;;;;;;5304193;27;20515;-78
2024/04/18 11:56:56;;;;;;;6.00;1.43;;;26.80;32.70;;;;;;5309351;26;20524;-78
2024/04/18 11:59:29;;;;;;;2.40;1.10;;;29.30;31.20;;;;;;5304595;26;20460;-77
2024/04/18 12:01:59;;;;;;;1.57;1.00;;;30.10;28.20;;;;;;5298248;27;20478;-76
2024/04/18 12:04:30;;;;;;;3.13;0.80;;;29.00;28.20;;;;;;5320658;26;20472;-76
2024/04/18 12:07:00;;;;;;;0.90;0.87;;;30.50;27.90;;;;;;5315887;26;20529;-77
2024/04/18 12:09:36;;;;;;;1.67;0.90;;;31.00;25.40;;;;;;5310068;26;20544;-77
2024/04/18 12:12:07;;;;;;;2.20;0.77;;;31.00;26.00;;;;;;5294842;27;20551;-78
2024/04/18 12:14:38;;;;;;;1.67;1.20;;;32.10;25.20;;;;;;5313140;27;20875;-78
2024/04/18 12:17:08;;;;;;;1.70;1.60;;;33.40;24.40;;;;;;5289688;26;20473;-78
2024/04/18 12:19:39;;;;;;;1.33;1.00;;;34.40;24.50;;;;;;5310785;26;20477;-78
2024/04/18 12:22:15;;;;;;;1.40;1.07;;;33.90;23.20;;;;;;5303653;27;20543;-78
2024/04/18 12:24:47;;;;;;;2.50;1.17;;;32.00;22.90;;;;;;5297693;27;20466;-78
2024/04/18 12:27:17;;;;;;;1.53;1.40;;;31.70;25.40;;;;;;5301837;26;20478;-79
2024/04/18 12:29:46;;;;;;;1.97;1.07;;;33.20;23.10;;;;;;5309086;27;20600;-78
2024/04/18 12:32:19;;;;;;;1.23;1.00;;;33.60;22.30;;;;;;5310937;26;20526;-79
2024/04/18 12:34:50;;;;;;;5.30;1.13;;;32.80;23.40;;;;;;5301631;27;20552;-77
2024/04/18 12:37:20;;;;;;;1.00;1.00;;;31.00;21.70;;;;;;5310999;26;20493;-78
2024/04/18 12:39:53;;;;;;;2.57;1.10;;;29.00;23.30;;;;;;5313096;26;20484;-77
2024/04/18 12:42:23;;;;;;;3.50;0.93;;;28.30;23.90;;;;;;5308642;27;20585;-77
2024/04/18 12:44:54;;;;;;;1.80;1.47;;;26.80;24.70;;;;;;5313559;26;20461;-77
2024/04/18 12:47:24;;;;;;;6.63;1.50;;;25.90;26.20;;;;;;5304189;27;20457;-77
2024/04/18 12:49:54;;;;;;;3.97;3.60;;;24.90;26.80;;;;;;5307047;26;20458;-79
2024/04/18 12:52:25;;;;;;;5.53;3.40;;;24.20;28.30;;;;;;5302389;26;20488;-78
2024/04/18 12:54:58;;;;;;;7.53;5.73;;;23.90;29.00;;;;;;5306658;26;20552;-78
2024/04/18 12:57:29;;;;;;;4.40;2.03;;;26.80;29.60;;;;;;5312374;26;20455;-79
2024/04/18 12:59:59;;;;;;;2.57;1.37;;;27.20;27.50;;;;;;5310772;26;20484;-77
2024/04/18 13:02:29;;;;;;;1.80;1.10;;;26.40;26.70;;;;;;5306501;26;20565;-79
2024/04/18 13:04:59;;;;;;;4.50;1.30;;;25.10;26.90;;;;;;5307162;27;20469;-78
2024/04/18 13:07:31;;;;;;;2.47;1.30;;;24.30;28.30;;;;;;5304678;26;20477;-80
2024/04/18 13:10:06;;;;;;;2.00;1.77;;;23.60;28.80;;;;;;5307869;27;20562;-80
2024/04/18 13:12:36;;;;;;;4.63;1.30;;;23.10;28.80;;;;;;5308112;27;20489;-79
2024/04/18 13:15:07;;;;;;;2.33;1.27;;;23.10;29.70;;;;;;5280079;27;20541;-80